createdAt,value
2016-05-03T00:00:21.474Z,13.96
2016-05-03T00:01:21.227Z,13.97
2016-05-03T00:02:21.277Z,13.96
2016-05-03T00:03:21.310Z,13.92
2016-05-03T00:04:21.188Z,13.87
2016-05-03T00:05:21.379Z,13.9
2016-05-03T00:06:21.257Z,13.89
2016-05-03T00:07:22.149Z,13.92
2016-05-03T00:08:21.496Z,14
2016-05-03T00:09:21.357Z,13.89
2016-05-03T00:10:21.565Z,14.05
2016-05-03T00:11:21.582Z,14
2016-05-03T00:12:21.320Z,13.92
2016-05-03T00:13:21.682Z,13.85
2016-05-03T00:14:21.543Z,13.9
2016-05-03T00:15:21.749Z,13.9
2016-05-03T00:16:21.768Z,13.89
2016-05-03T00:17:21.801Z,13.99
2016-05-03T00:18:21.836Z,13.99
2016-05-03T00:19:21.885Z,13.9
2016-05-03T00:20:21.920Z,13.89
2016-05-03T00:21:21.969Z,13.83
2016-05-03T00:22:22.956Z,13.87
2016-05-03T00:23:22.037Z,13.9
2016-05-03T00:24:22.055Z,13.93
2016-05-03T00:25:22.090Z,13.96
2016-05-03T00:26:22.124Z,13.83
2016-05-03T00:27:22.174Z,13.93
2016-05-03T00:28:22.206Z,13.95
2016-05-03T00:29:22.241Z,13.92
2016-05-03T00:30:22.279Z,13.93
2016-05-03T00:31:22.312Z,13.89
2016-05-03T00:32:22.347Z,13.92
2016-05-03T00:33:22.225Z,13.92
2016-05-03T00:34:22.415Z,13.85
2016-05-03T00:35:22.448Z,13.81
2016-05-03T00:36:22.186Z,13.93
2016-05-03T00:37:22.532Z,13.86
2016-05-03T00:38:22.554Z,13.79
2016-05-03T00:39:22.432Z,13.83
2016-05-03T00:40:22.621Z,13.72
2016-05-03T00:41:22.655Z,13.77
2016-05-03T00:42:22.689Z,13.83
2016-05-03T00:43:22.740Z,13.77
2016-05-03T00:44:22.757Z,13.78
2016-05-03T00:45:22.807Z,13.87
2016-05-03T00:46:22.700Z,13.72
2016-05-03T00:47:22.718Z,13.77
2016-05-03T00:48:22.924Z,13.89
2016-05-03T00:49:22.943Z,13.85
2016-05-03T00:50:22.992Z,13.86
2016-05-03T00:51:23.026Z,13.81
2016-05-03T00:52:23.076Z,13.81
2016-05-03T00:53:23.094Z,13.81
2016-05-03T00:54:23.128Z,13.77
2016-05-03T00:55:23.162Z,13.75
2016-05-03T00:56:23.195Z,13.81
2016-05-03T00:57:23.230Z,13.74
2016-05-03T00:58:23.264Z,13.78
2016-05-03T00:59:23.313Z,13.7
2016-05-03T01:00:23.191Z,13.74
2016-05-03T01:01:23.225Z,13.72
2016-05-03T01:02:23.415Z,13.75
2016-05-03T01:03:23.434Z,13.65
2016-05-03T01:04:23.467Z,13.63
2016-05-03T01:05:23.516Z,13.74
2016-05-03T01:06:23.552Z,13.68
2016-05-03T01:07:23.835Z,13.7
2016-05-03T01:08:23.478Z,13.63
2016-05-03T01:09:23.652Z,13.56
2016-05-03T01:10:23.688Z,13.59
2016-05-03T01:11:23.720Z,13.59
2016-05-03T01:12:23.771Z,13.59
2016-05-03T01:13:23.804Z,13.62
2016-05-03T01:14:23.681Z,13.59
2016-05-03T01:15:23.872Z,13.56
2016-05-03T01:16:23.906Z,13.57
2016-05-03T01:17:23.784Z,13.62
2016-05-03T01:18:23.973Z,13.62
2016-05-03T01:19:23.852Z,13.6
2016-05-03T01:20:24.042Z,13.65
2016-05-03T01:21:24.076Z,13.71
2016-05-03T01:22:24.344Z,13.65
2016-05-03T01:23:24.159Z,13.62
2016-05-03T01:24:24.193Z,13.57
2016-05-03T01:25:24.071Z,13.72
2016-05-03T01:26:24.261Z,13.57
2016-05-03T01:27:24.295Z,13.63
2016-05-03T01:28:24.329Z,13.54
2016-05-03T01:29:24.378Z,13.72
2016-05-03T01:30:24.397Z,13.68
2016-05-03T01:31:24.430Z,13.63
2016-05-03T01:32:24.465Z,13.56
2016-05-03T01:33:24.342Z,13.62
2016-05-03T01:34:24.377Z,13.59
2016-05-03T01:35:24.426Z,13.56
2016-05-03T01:36:24.460Z,13.59
2016-05-03T01:37:24.510Z,13.5
2016-05-03T01:38:24.684Z,13.49
2016-05-03T01:39:24.718Z,13.6
2016-05-03T01:40:24.611Z,13.52
2016-05-03T01:42:24.820Z,13.52
2016-05-03T01:43:24.854Z,13.59
2016-05-03T01:44:24.888Z,13.52
2016-05-03T01:45:24.921Z,13.47
2016-05-03T01:46:24.971Z,13.46
2016-05-03T01:47:24.990Z,13.39
2016-05-03T01:48:25.040Z,13.39
2016-05-03T01:49:25.073Z,13.47
2016-05-03T01:50:25.107Z,13.41
2016-05-03T01:51:25.141Z,13.42
2016-05-03T01:52:26.050Z,13.33
2016-05-03T01:53:25.210Z,13.37
2016-05-03T01:54:25.243Z,13.38
2016-05-03T01:55:25.276Z,13.39
2016-05-03T01:56:25.015Z,13.37
2016-05-03T01:57:25.345Z,13.39
2016-05-03T01:58:25.378Z,13.37
2016-05-03T01:59:25.428Z,13.27
2016-05-03T02:00:25.447Z,13.35
2016-05-03T02:01:25.496Z,13.13
2016-05-03T02:02:25.530Z,13.27
2016-05-03T02:03:25.408Z,13.25
2016-05-03T02:04:25.598Z,13.19
2016-05-03T02:05:25.632Z,13.25
2016-05-03T02:06:25.667Z,13.27
2016-05-03T02:07:25.699Z,13.28
2016-05-03T02:08:25.750Z,13.16
2016-05-03T02:09:25.767Z,13.27
2016-05-03T02:10:25.802Z,13.16
2016-05-03T02:11:25.680Z,13.2
2016-05-03T02:12:25.869Z,13.2
2016-05-03T02:13:25.903Z,13.22
2016-05-03T02:14:25.953Z,13.3
2016-05-03T02:15:25.987Z,13.31
2016-05-03T02:16:25.865Z,13.11
2016-05-03T02:17:26.055Z,13.28
2016-05-03T02:18:26.088Z,13.15
2016-05-03T02:19:26.123Z,13.12
2016-05-03T02:20:26.157Z,13.16
2016-05-03T02:21:26.191Z,13.15
2016-05-03T02:22:26.224Z,13.03
2016-05-03T02:23:26.102Z,13.08
2016-05-03T02:24:26.136Z,13.12
2016-05-03T02:25:26.326Z,13.08
2016-05-03T02:26:26.204Z,13.04
2016-05-03T02:27:26.395Z,13.03
2016-05-03T02:28:26.272Z,13.04
2016-05-03T02:29:26.462Z,13.04
2016-05-03T02:30:26.340Z,13.03
2016-05-03T02:31:26.546Z,12.98
2016-05-03T02:32:26.408Z,12.98
2016-05-03T02:33:26.613Z,13.03
2016-05-03T02:34:26.648Z,13.03
2016-05-03T02:35:26.681Z,13.18
2016-05-03T02:36:26.715Z,13.12
2016-05-03T02:37:26.842Z,13.12
2016-05-03T02:38:26.643Z,13.08
2016-05-03T02:39:26.817Z,13.12
2016-05-03T02:40:26.850Z,13.13
2016-05-03T02:41:26.728Z,13.04
2016-05-03T02:42:26.919Z,13.03
2016-05-03T02:43:26.797Z,13.05
2016-05-03T02:44:27.003Z,13
2016-05-03T02:45:27.036Z,13
2016-05-03T02:46:27.055Z,13.04
2016-05-03T02:47:27.089Z,13.01
2016-05-03T02:48:27.138Z,12.98
2016-05-03T02:49:27.157Z,12.97
2016-05-03T02:50:27.190Z,13.04
2016-05-03T02:51:27.241Z,13.19
2016-05-03T02:52:27.274Z,13.13
2016-05-03T02:53:27.308Z,13.3
2016-05-03T02:54:27.186Z,13.31
2016-05-03T02:55:27.377Z,13.31
2016-05-03T02:56:27.254Z,13.15
2016-05-03T02:57:27.444Z,13.18
2016-05-03T02:58:27.479Z,13.16
2016-05-03T02:59:27.512Z,13.15
2016-05-03T03:00:27.546Z,13.23
2016-05-03T03:01:27.579Z,13.22
2016-05-03T03:02:27.457Z,13.13
2016-05-03T03:03:27.648Z,13.16
2016-05-03T03:04:27.682Z,13.25
2016-05-03T03:05:27.715Z,13.13
2016-05-03T03:06:27.750Z,13.19
2016-05-03T03:07:28.956Z,13.15
2016-05-03T03:08:27.817Z,13.19
2016-05-03T03:09:27.850Z,13.28
2016-05-03T03:10:27.886Z,13.16
2016-05-03T03:11:27.934Z,13.19
2016-05-03T03:12:27.969Z,13.18
2016-05-03T03:13:28.002Z,13.13
2016-05-03T03:14:27.881Z,13.18
2016-05-03T03:15:28.070Z,13.16
2016-05-03T03:16:28.089Z,13.11
2016-05-03T03:17:28.123Z,13.16
2016-05-03T03:18:28.016Z,13.2
2016-05-03T03:19:28.206Z,13.19
2016-05-03T03:20:28.240Z,13.18
2016-05-03T03:21:28.274Z,13.19
2016-05-03T03:22:28.339Z,13.11
2016-05-03T03:23:28.202Z,13.15
2016-05-03T03:24:28.219Z,13.11
2016-05-03T03:25:28.426Z,13
2016-05-03T03:26:28.459Z,13.09
2016-05-03T03:27:28.477Z,13.03
2016-05-03T03:28:28.512Z,13.01
2016-05-03T03:29:28.546Z,12.98
2016-05-03T03:30:28.424Z,12.97
2016-05-03T03:31:28.630Z,12.98
2016-05-03T03:32:28.663Z,13.13
2016-05-03T03:33:28.541Z,13.05
2016-05-03T03:34:28.715Z,13.01
2016-05-03T03:35:28.749Z,13.01
2016-05-03T03:36:28.799Z,13.03
2016-05-03T03:37:29.176Z,12.94
2016-05-03T03:38:28.867Z,12.95
2016-05-03T03:39:28.901Z,12.91
2016-05-03T03:40:28.950Z,12.91
2016-05-03T03:41:28.953Z,12.91
2016-05-03T03:42:29.003Z,12.8
2016-05-03T03:43:28.881Z,12.83
2016-05-03T03:44:29.071Z,13.04
2016-05-03T03:45:29.104Z,12.98
2016-05-03T03:46:29.153Z,12.97
2016-05-03T03:47:29.172Z,12.97
2016-05-03T03:48:29.206Z,12.95
2016-05-03T03:49:29.240Z,12.95
2016-05-03T03:50:29.275Z,12.93
2016-05-03T03:51:29.324Z,12.91
2016-05-03T03:52:29.358Z,12.91
2016-05-03T03:53:29.407Z,12.93
2016-05-03T03:54:29.425Z,12.93
2016-05-03T03:55:29.443Z,13.09
2016-05-03T03:56:29.478Z,13.01
2016-05-03T03:57:29.512Z,13.03
2016-05-03T03:58:29.545Z,13.08
2016-05-03T03:59:29.595Z,13.12
2016-05-03T04:00:29.613Z,13.11
2016-05-03T04:01:29.648Z,13.15
2016-05-03T04:02:29.697Z,13.16
2016-05-03T04:03:29.731Z,13.19
2016-05-03T04:04:29.749Z,13.13
2016-05-03T04:05:29.799Z,13.05
2016-05-03T04:06:29.833Z,13.12
2016-05-03T04:07:29.570Z,13.11
2016-05-03T04:08:29.744Z,13.08
2016-05-03T04:09:29.950Z,13.08
2016-05-03T04:10:29.812Z,13.05
2016-05-03T04:11:30.003Z,13.19
2016-05-03T04:12:30.053Z,13.18
2016-05-03T04:13:29.931Z,13.15
2016-05-03T04:14:30.103Z,13.13
2016-05-03T04:15:30.138Z,13.12
2016-05-03T04:16:30.016Z,13.16
2016-05-03T04:17:30.206Z,13.12
2016-05-03T04:18:30.084Z,13.09
2016-05-03T04:19:30.274Z,13.03
2016-05-03T04:20:30.308Z,13.01
2016-05-03T04:21:30.362Z,13.08
2016-05-03T04:22:30.786Z,13.03
2016-05-03T04:23:30.539Z,13
2016-05-03T04:24:30.432Z,13.01
2016-05-03T04:25:30.669Z,13.03
2016-05-03T04:26:30.605Z,13.13
2016-05-03T04:27:30.656Z,13.09
2016-05-03T04:28:30.862Z,12.91
2016-05-03T04:29:30.757Z,12.97
2016-05-03T04:30:30.807Z,12.98
2016-05-03T04:31:30.856Z,12.95
2016-05-03T04:32:31.052Z,12.87
2016-05-03T04:33:31.093Z,12.9
2016-05-03T04:34:31.133Z,12.9
2016-05-03T04:35:31.173Z,12.75
2016-05-03T04:36:31.212Z,12.8
2016-05-03T04:37:32.405Z,12.82
2016-05-03T04:38:31.129Z,12.72
2016-05-03T04:39:31.320Z,12.75
2016-05-03T04:40:31.358Z,12.57
2016-05-03T04:41:31.394Z,12.45
2016-05-03T04:42:31.428Z,12.12
2016-05-03T04:43:31.463Z,11.7
2016-05-03T04:44:31.498Z,11.52
2016-05-03T04:45:31.533Z,11.26
2016-05-03T04:46:31.567Z,11.26
2016-05-03T04:47:31.601Z,11.22
2016-05-03T04:48:31.651Z,11.07
2016-05-03T04:49:31.685Z,11.05
2016-05-03T04:50:31.548Z,11
2016-05-03T04:51:31.738Z,11.05
2016-05-03T04:52:31.913Z,10.97
2016-05-03T04:53:31.650Z,11.1
2016-05-03T04:54:31.840Z,11
2016-05-03T04:55:31.874Z,11.02
2016-05-03T04:56:31.940Z,10.84
2016-05-03T04:57:31.942Z,10.9
2016-05-03T04:58:31.976Z,10.81
2016-05-03T04:59:32.026Z,10.79
2016-05-03T05:00:32.044Z,10.86
2016-05-03T05:01:32.078Z,10.81
2016-05-03T05:02:32.112Z,10.87
2016-05-03T05:03:32.146Z,10.87
2016-05-03T05:04:32.180Z,10.86
2016-05-03T05:05:32.229Z,10.79
2016-05-03T05:06:32.106Z,10.9
2016-05-03T05:07:34.266Z,10.86
2016-05-03T05:08:32.159Z,10.74
2016-05-03T05:09:32.194Z,10.63
2016-05-03T05:10:32.383Z,10.56
2016-05-03T05:11:32.261Z,10.63
2016-05-03T05:12:32.452Z,10.57
2016-05-03T05:13:32.500Z,10.63
2016-05-03T05:14:32.519Z,10.75
2016-05-03T05:15:32.381Z,10.86
2016-05-03T05:16:32.587Z,10.71
2016-05-03T05:17:32.621Z,10.68
2016-05-03T05:18:32.655Z,10.59
2016-05-03T05:19:32.548Z,10.59
2016-05-03T05:20:32.723Z,10.57
2016-05-03T05:21:32.741Z,10.68
2016-05-03T05:22:32.729Z,10.74
2016-05-03T05:23:32.824Z,10.74
2016-05-03T05:24:32.687Z,10.69
2016-05-03T05:25:32.877Z,10.57
2016-05-03T05:26:32.910Z,10.75
2016-05-03T05:27:32.945Z,10.71
2016-05-03T05:28:32.994Z,10.71
2016-05-03T05:29:33.012Z,10.76
2016-05-03T05:30:33.062Z,10.71
2016-05-03T05:31:33.081Z,10.67
2016-05-03T05:32:33.114Z,10.6
2016-05-03T05:33:33.148Z,10.59
2016-05-03T05:34:33.182Z,10.44
2016-05-03T05:35:33.216Z,10.42
2016-05-03T05:36:33.250Z,10.46
2016-05-03T05:37:33.128Z,10.4
2016-05-03T05:38:33.161Z,10.41
2016-05-03T05:39:33.196Z,10.4
2016-05-03T05:40:33.230Z,10.34
2016-05-03T05:41:33.404Z,10.25
2016-05-03T05:42:33.453Z,10.17
2016-05-03T05:43:33.316Z,10.13
2016-05-03T05:44:33.505Z,10.17
2016-05-03T05:45:33.555Z,10.15
2016-05-03T05:46:33.574Z,10.2
2016-05-03T05:47:33.467Z,10.2
2016-05-03T05:48:33.657Z,10.04
2016-05-03T05:49:33.519Z,10.05
2016-05-03T05:50:33.710Z,10.07
2016-05-03T05:51:33.744Z,10.13
2016-05-03T05:52:35.402Z,10.15
2016-05-03T05:53:33.921Z,10.13
2016-05-03T05:54:33.830Z,10.17
2016-05-03T05:55:33.723Z,10.19
2016-05-03T05:56:33.913Z,10.26
2016-05-03T05:57:33.791Z,10.26
2016-05-03T05:58:33.996Z,10.19
2016-05-03T05:59:33.843Z,10.23
2016-05-03T06:00:34.034Z,10.31
2016-05-03T06:01:34.083Z,10.31
2016-05-03T06:02:34.101Z,10.34
2016-05-03T06:03:34.134Z,10.38
2016-05-03T06:04:33.857Z,10.37
2016-05-03T06:05:34.204Z,10.44
2016-05-03T06:06:34.237Z,10.42
2016-05-03T06:07:34.224Z,10.38
2016-05-03T06:08:34.305Z,10.54
2016-05-03T06:09:34.339Z,10.57
2016-05-03T06:10:34.358Z,10.51
2016-05-03T06:11:34.251Z,10.53
2016-05-03T06:12:34.441Z,10.4
2016-05-03T06:13:34.474Z,10.35
2016-05-03T06:14:34.509Z,10.38
2016-05-03T06:15:34.527Z,10.33
2016-05-03T06:16:34.561Z,10.35
2016-05-03T06:17:34.595Z,10.35
2016-05-03T06:18:34.645Z,10.4
2016-05-03T06:19:34.678Z,10.44
2016-05-03T06:20:34.697Z,10.53
2016-05-03T06:21:34.730Z,10.68
2016-05-03T06:22:34.905Z,10.78
2016-05-03T06:23:34.830Z,10.87
2016-05-03T06:24:34.833Z,10.72
2016-05-03T06:25:34.882Z,10.57
2016-05-03T06:26:34.915Z,10.63
2016-05-03T06:27:34.779Z,10.68
2016-05-03T06:28:34.827Z,10.63
2016-05-03T06:29:35.018Z,10.81
2016-05-03T06:30:35.037Z,10.81
2016-05-03T06:31:35.070Z,10.82
2016-05-03T06:32:35.104Z,10.89
2016-05-03T06:33:34.982Z,10.89
2016-05-03T06:34:35.156Z,10.9
2016-05-03T06:35:35.190Z,10.84
2016-05-03T06:36:35.240Z,10.56
2016-05-03T06:37:35.337Z,10.75
2016-05-03T06:38:35.307Z,10.63
2016-05-03T06:39:35.326Z,10.68
2016-05-03T06:40:35.375Z,10.71
2016-05-03T06:41:35.394Z,10.72
2016-05-03T06:42:35.428Z,10.6
2016-05-03T06:43:35.462Z,10.72
2016-05-03T06:44:35.495Z,10.84
2016-05-03T06:45:35.544Z,10.72
2016-05-03T06:46:35.579Z,10.72
2016-05-03T06:47:35.597Z,10.9
2016-05-03T06:48:35.475Z,10.99
2016-05-03T06:49:35.681Z,10.97
2016-05-03T06:50:35.699Z,11.05
2016-05-03T06:51:35.749Z,11.08
2016-05-03T06:52:37.064Z,11.11
2016-05-03T06:53:35.801Z,11.04
2016-05-03T06:54:35.694Z,11.12
2016-05-03T06:55:35.868Z,11.22
2016-05-03T06:56:35.763Z,11.26
2016-05-03T06:57:35.937Z,11.35
2016-05-03T06:58:35.987Z,11.25
2016-05-03T06:59:36.005Z,11.22
2016-05-03T07:00:36.038Z,11.33
2016-05-03T07:01:36.088Z,11.48
2016-05-03T07:02:36.107Z,11.51
2016-05-03T07:03:36.140Z,11.68
2016-05-03T07:04:36.174Z,11.66
2016-05-03T07:05:36.224Z,11.65
2016-05-03T07:06:36.243Z,11.52
2016-05-03T07:07:36.323Z,11.63
2016-05-03T07:08:36.310Z,11.57
2016-05-03T07:09:36.344Z,11.63
2016-05-03T07:10:36.237Z,11.55
2016-05-03T07:11:36.428Z,11.57
2016-05-03T07:12:36.462Z,11.57
2016-05-03T07:13:36.496Z,11.54
2016-05-03T07:14:36.530Z,11.68
2016-05-03T07:15:36.564Z,11.72
2016-05-03T07:16:36.613Z,11.66
2016-05-03T07:17:36.631Z,11.54
2016-05-03T07:18:36.666Z,11.47
2016-05-03T07:19:36.714Z,11.44
2016-05-03T07:20:36.733Z,11.37
2016-05-03T07:21:36.767Z,11.29
2016-05-03T07:22:37.114Z,11.36
2016-05-03T07:23:36.835Z,11.23
2016-05-03T07:24:36.869Z,11.22
2016-05-03T07:25:36.747Z,11.26
2016-05-03T07:26:36.937Z,11.35
2016-05-03T07:27:36.971Z,11.37
2016-05-03T07:28:37.004Z,11.36
2016-05-03T07:29:37.055Z,11.41
2016-05-03T07:30:36.916Z,11.43
2016-05-03T07:31:37.107Z,11.59
2016-05-03T07:32:37.000Z,11.37
2016-05-03T07:33:37.174Z,11.37
2016-05-03T07:34:37.224Z,11.4
2016-05-03T07:35:37.257Z,11.44
2016-05-03T07:36:37.135Z,11.36
2016-05-03T07:37:37.326Z,11.4
2016-05-03T07:38:37.203Z,11.3
2016-05-03T07:39:37.394Z,11.37
2016-05-03T07:40:37.428Z,11.32
2016-05-03T07:41:37.306Z,11.43
2016-05-03T07:42:37.340Z,11.4
2016-05-03T07:43:37.529Z,11.36
2016-05-03T07:44:37.407Z,11.37
2016-05-03T07:45:37.597Z,11.41
2016-05-03T07:46:37.631Z,11.5
2016-05-03T07:47:37.665Z,11.88
2016-05-03T07:48:37.700Z,12.62
2016-05-03T07:49:37.733Z,13.27
2016-05-03T07:50:37.752Z,13.18
2016-05-03T07:51:37.801Z,12.93
2016-05-03T07:52:38.163Z,12.79
2016-05-03T07:53:37.885Z,12.75
2016-05-03T07:54:37.731Z,13
2016-05-03T07:55:37.766Z,13.74
2016-05-03T07:56:37.986Z,14.26
2016-05-03T07:57:37.848Z,14.62
2016-05-03T07:58:38.413Z,14.77
2016-05-03T07:59:38.072Z,15.54
2016-05-03T08:00:38.122Z,15.97
2016-05-03T08:01:38.000Z,16.57
2016-05-03T08:02:38.191Z,16.78
2016-05-03T08:03:38.240Z,16.5
2016-05-03T08:04:38.258Z,16.57
2016-05-03T08:05:38.308Z,16.09
2016-05-03T08:06:38.185Z,16.1
2016-05-03T08:07:38.391Z,15.98
2016-05-03T08:08:38.441Z,15.94
2016-05-03T08:09:38.459Z,16.01
2016-05-03T08:10:38.336Z,16.09
2016-05-03T08:11:38.371Z,15.68
2016-05-03T08:12:38.561Z,15.1
2016-05-03T08:13:38.609Z,14.82
2016-05-03T08:14:38.645Z,14.69
2016-05-03T08:15:38.522Z,14.32
2016-05-03T08:16:38.728Z,14.17
2016-05-03T08:17:38.762Z,14.03
2016-05-03T08:18:38.811Z,13.67
2016-05-03T08:19:38.845Z,13.37
2016-05-03T08:20:38.878Z,13
2016-05-03T08:21:38.913Z,12.98
2016-05-03T08:22:39.369Z,13.11
2016-05-03T08:23:38.841Z,13.25
2016-05-03T08:24:38.874Z,13.19
2016-05-03T08:25:39.064Z,13.04
2016-05-03T08:26:39.099Z,13.65
2016-05-03T08:27:39.163Z,13.7
2016-05-03T08:28:39.182Z,13.79
2016-05-03T08:29:39.216Z,13.79
2016-05-03T08:30:39.266Z,14.45
2016-05-03T08:31:39.377Z,14.73
2016-05-03T08:32:39.333Z,14.84
2016-05-03T08:33:39.242Z,14.66
2016-05-03T08:34:39.401Z,14.14
2016-05-03T08:35:39.294Z,13.78
2016-05-03T08:36:39.515Z,13.77
2016-05-03T08:37:40.081Z,13.75
2016-05-03T08:38:39.552Z,13.6
2016-05-03T08:39:39.601Z,13.65
2016-05-03T08:40:39.323Z,13.54
2016-05-03T08:41:39.670Z,13.57
2016-05-03T08:42:39.719Z,13.78
2016-05-03T08:43:39.597Z,13.74
2016-05-03T08:44:39.788Z,13.86
2016-05-03T08:45:39.821Z,13.89
2016-05-03T08:46:39.870Z,14.36
2016-05-03T08:47:39.906Z,14.84
2016-05-03T08:48:39.939Z,15.24
2016-05-03T08:49:39.972Z,15.59
2016-05-03T08:50:40.022Z,15.98
2016-05-03T08:51:39.900Z,15.95
2016-05-03T08:52:40.433Z,15.75
2016-05-03T08:53:40.124Z,15.21
2016-05-03T08:54:40.158Z,14.84
2016-05-03T08:55:40.208Z,14.77
2016-05-03T08:56:40.242Z,14.85
2016-05-03T08:57:40.291Z,14.88
2016-05-03T08:58:40.310Z,15.02
2016-05-03T08:59:40.375Z,14.92
2016-05-03T09:00:42.643Z,15.03
2016-05-03T09:01:40.427Z,15.1
2016-05-03T09:02:40.476Z,15.42
2016-05-03T09:03:40.354Z,15.64
2016-05-03T09:04:40.544Z,15.72
2016-05-03T09:05:40.438Z,15.77
2016-05-03T09:06:40.627Z,15.64
2016-05-03T09:07:40.521Z,15.7
2016-05-03T09:08:40.712Z,15.39
2016-05-03T09:09:40.745Z,15.61
2016-05-03T09:10:40.795Z,16.15
2016-05-03T09:11:40.813Z,16.26
2016-05-03T09:12:40.863Z,16.36
2016-05-03T09:13:40.912Z,15.75
2016-05-03T09:14:40.946Z,15.52
2016-05-03T09:15:40.980Z,15.28
2016-05-03T09:16:41.014Z,14.94
2016-05-03T09:17:41.064Z,14.58
2016-05-03T09:18:41.097Z,14.32
2016-05-03T09:19:40.975Z,13.96
2016-05-03T09:20:41.165Z,14.28
2016-05-03T09:21:41.214Z,15
2016-05-03T09:22:41.113Z,16.2
2016-05-03T09:23:41.127Z,16.93
2016-05-03T09:24:41.333Z,17.38
2016-05-03T09:25:41.397Z,17.3
2016-05-03T09:26:41.400Z,17.39
2016-05-03T09:27:41.434Z,17.19
2016-05-03T09:28:41.484Z,17.67
2016-05-03T09:29:41.533Z,17.94
2016-05-03T09:30:41.552Z,18.35
2016-05-03T09:31:41.585Z,19.21
2016-05-03T09:32:41.635Z,19.79
2016-05-03T09:33:41.528Z,20.11
2016-05-03T09:34:41.719Z,19.51
2016-05-03T09:35:41.612Z,18.74
2016-05-03T09:36:41.802Z,18.16
2016-05-03T09:37:41.696Z,18.41
2016-05-03T09:38:41.885Z,19.04
2016-05-03T09:39:41.935Z,19.48
2016-05-03T09:40:41.969Z,18.75
2016-05-03T09:41:42.003Z,18.11
2016-05-03T09:42:42.053Z,18.01
2016-05-03T09:43:42.087Z,18.35
2016-05-03T09:44:42.137Z,18.58
2016-05-03T09:45:42.170Z,18.26
2016-05-03T09:46:42.220Z,17.68
2016-05-03T09:47:42.254Z,17.2
2016-05-03T09:48:42.319Z,17.05
2016-05-03T09:49:42.337Z,16.84
2016-05-03T09:50:42.386Z,16.64
2016-05-03T09:51:42.281Z,15.94
2016-05-03T09:52:43.173Z,15.22
2016-05-03T09:53:42.519Z,14.97
2016-05-03T09:54:42.398Z,14.78
2016-05-03T09:55:42.603Z,14.72
2016-05-03T09:56:42.637Z,14.72
2016-05-03T09:57:42.531Z,14.92
2016-05-03T09:58:42.721Z,14.96
2016-05-03T09:59:42.755Z,14.66
2016-05-03T10:00:42.788Z,14.85
2016-05-03T10:01:42.839Z,14.82
2016-05-03T10:02:42.903Z,15.25
2016-05-03T10:03:42.749Z,15.39
2016-05-03T10:04:42.955Z,15.97
2016-05-03T10:05:43.036Z,16
2016-05-03T10:06:43.054Z,15.72
2016-05-03T10:07:42.995Z,16
2016-05-03T10:08:43.123Z,16.24
2016-05-03T10:09:43.156Z,16.54
2016-05-03T10:10:43.206Z,16.51
2016-05-03T10:11:43.240Z,16.33
2016-05-03T10:12:43.290Z,16.28
2016-05-03T10:13:43.323Z,16.86
2016-05-03T10:14:43.357Z,17.44
2016-05-03T10:15:43.251Z,18.13
2016-05-03T10:16:43.457Z,18.34
2016-05-03T10:17:43.334Z,18.68
2016-05-03T10:18:43.540Z,19.02
2016-05-03T10:19:43.573Z,18.37
2016-05-03T10:20:43.624Z,17.94
2016-05-03T10:21:43.486Z,17.94
2016-05-03T10:22:43.847Z,17.78
2016-05-03T10:23:43.584Z,17.71
2016-05-03T10:24:43.619Z,17.97
2016-05-03T10:25:43.825Z,17.87
2016-05-03T10:26:43.859Z,17.19
2016-05-03T10:27:43.924Z,16.94
2016-05-03T10:28:43.942Z,16.69
2016-05-03T10:29:44.008Z,16.39
2016-05-03T10:30:44.041Z,16.35
2016-05-03T10:31:44.075Z,16.75
2016-05-03T10:32:44.125Z,17.54
2016-05-03T10:33:44.158Z,18.23
2016-05-03T10:34:44.052Z,18.45
2016-05-03T10:35:44.102Z,18.52
2016-05-03T10:36:44.292Z,18.37
2016-05-03T10:37:44.607Z,18.88
2016-05-03T10:38:44.375Z,18.88
2016-05-03T10:39:44.425Z,18.98
2016-05-03T10:40:44.459Z,19.52
2016-05-03T10:41:44.508Z,19.7
2016-05-03T10:42:44.558Z,19.74
2016-05-03T10:43:44.435Z,19.51
2016-05-03T10:44:44.641Z,19.04
2016-05-03T10:45:44.519Z,19.04
2016-05-03T10:46:44.584Z,18.92
2016-05-03T10:47:44.774Z,18.88
2016-05-03T10:48:44.823Z,18.49
2016-05-03T10:49:44.858Z,18.52
2016-05-03T10:50:44.907Z,18.95
2016-05-03T10:51:44.942Z,17.98
2016-05-03T10:52:44.992Z,18.26
2016-05-03T10:53:45.040Z,18.58
2016-05-03T10:54:44.933Z,18.62
2016-05-03T10:55:45.140Z,18.7
2016-05-03T10:56:45.173Z,18.28
2016-05-03T10:57:45.223Z,17.89
2016-05-03T10:58:45.273Z,17.23
2016-05-03T10:59:44.994Z,16.86
2016-05-03T11:00:45.356Z,16.64
2016-05-03T11:01:45.250Z,16.31
2016-05-03T11:02:45.439Z,16.01
2016-05-03T11:03:45.505Z,15.68
2016-05-03T11:04:45.555Z,15.46
2016-05-03T11:05:45.572Z,15.4
2016-05-03T11:06:45.466Z,15.29
2016-05-03T11:07:45.516Z,15.11
2016-05-03T11:08:45.549Z,15.02
2016-05-03T11:09:45.741Z,14.92
2016-05-03T11:10:45.774Z,14.79
2016-05-03T11:11:45.776Z,14.72
2016-05-03T11:12:45.874Z,14.82
2016-05-03T11:13:45.890Z,14.85
2016-05-03T11:14:45.940Z,14.81
2016-05-03T11:15:45.974Z,14.84
2016-05-03T11:16:46.024Z,14.86
2016-05-03T11:17:46.059Z,15.02
2016-05-03T11:18:46.092Z,15.68
2016-05-03T11:19:46.157Z,16.05
2016-05-03T11:20:46.378Z,15.97
2016-05-03T11:21:46.226Z,16.23
2016-05-03T11:22:46.478Z,16.23
2016-05-03T11:23:46.309Z,16.09
2016-05-03T11:24:46.343Z,15.72
2016-05-03T11:25:46.376Z,15.33
2016-05-03T11:26:46.442Z,15.28
2016-05-03T11:27:46.461Z,14.92
2016-05-03T11:28:46.509Z,14.88
2016-05-03T11:29:46.528Z,14.88
2016-05-03T11:30:46.578Z,14.78
2016-05-03T11:31:46.611Z,14.69
2016-05-03T11:32:46.661Z,14.77
2016-05-03T11:33:46.695Z,14.7
2016-05-03T11:34:46.729Z,14.72
2016-05-03T11:35:46.466Z,14.81
2016-05-03T11:36:46.813Z,15.04
2016-05-03T11:37:46.862Z,15.7
2016-05-03T11:38:46.896Z,16.72
2016-05-03T11:39:46.930Z,17.56
2016-05-03T11:40:46.963Z,17.65
2016-05-03T11:41:47.014Z,18.5
2016-05-03T11:42:47.047Z,18.63
2016-05-03T11:43:46.941Z,18.92
2016-05-03T11:44:47.147Z,18.84
2016-05-03T11:45:47.165Z,18.13
2016-05-03T11:46:47.057Z,17.67
2016-05-03T11:47:47.092Z,17.54
2016-05-03T11:48:47.298Z,17.36
2016-05-03T11:49:47.176Z,16.96
2016-05-03T11:50:47.226Z,16.43
2016-05-03T11:51:47.415Z,15.91
2016-05-03T11:52:47.324Z,15.82
2016-05-03T11:53:47.498Z,15.49
2016-05-03T11:54:47.393Z,15.36
2016-05-03T11:55:47.582Z,15.11
2016-05-03T11:56:47.320Z,15.18
2016-05-03T11:57:47.509Z,14.92
2016-05-03T11:58:47.715Z,14.89
2016-05-03T11:59:47.828Z,14.91
2016-05-03T12:00:47.799Z,15.35
2016-05-03T12:01:47.818Z,15.86
2016-05-03T12:02:47.867Z,16.49
2016-05-03T12:03:47.900Z,17.7
2016-05-03T12:04:47.950Z,18.86
2016-05-03T12:05:47.984Z,19.09
2016-05-03T12:06:48.019Z,19.34
2016-05-03T12:07:48.069Z,19.55
2016-05-03T12:08:47.961Z,19.69
2016-05-03T12:09:47.995Z,19.85
2016-05-03T12:10:48.045Z,20.36
2016-05-03T12:11:48.250Z,20.29
2016-05-03T12:12:48.285Z,19.92
2016-05-03T12:13:48.177Z,20.11
2016-05-03T12:14:48.384Z,18.8
2016-05-03T12:15:48.418Z,17.86
2016-05-03T12:16:48.467Z,17.65
2016-05-03T12:17:48.360Z,17.42
2016-05-03T12:18:48.566Z,17.2
2016-05-03T12:19:48.601Z,16.65
2016-05-03T12:20:48.479Z,16.24
2016-05-03T12:21:48.684Z,15.91
2016-05-03T12:22:49.405Z,15.68
2016-05-03T12:23:48.627Z,15.46
2016-05-03T12:24:48.818Z,15.25
2016-05-03T12:25:48.867Z,15.22
2016-05-03T12:26:48.915Z,15.17
2016-05-03T12:27:48.965Z,15.09
2016-05-03T12:28:48.984Z,14.94
2016-05-03T12:29:48.736Z,14.88
2016-05-03T12:30:49.067Z,14.91
2016-05-03T12:31:49.117Z,14.79
2016-05-03T12:32:49.167Z,14.84
2016-05-03T12:33:49.185Z,14.73
2016-05-03T12:34:49.078Z,14.7
2016-05-03T12:35:49.268Z,14.63
2016-05-03T12:36:49.161Z,14.59
2016-05-03T12:37:49.367Z,14.79
2016-05-03T12:38:49.402Z,14.91
2016-05-03T12:39:49.436Z,14.81
2016-05-03T12:40:49.313Z,14.72
2016-05-03T12:41:49.519Z,15.04
2016-05-03T12:42:49.537Z,15.19
2016-05-03T12:43:49.586Z,15.17
2016-05-03T12:44:49.620Z,15.24
2016-05-03T12:45:49.655Z,15.31
2016-05-03T12:46:49.689Z,15.49
2016-05-03T12:47:49.582Z,15.49
2016-05-03T12:48:49.772Z,15.52
2016-05-03T12:49:49.821Z,16.1
2016-05-03T12:50:49.699Z,17.2
2016-05-03T12:51:49.889Z,17.71
2016-05-03T12:52:49.939Z,18.25
2016-05-03T12:53:49.817Z,18.8
2016-05-03T12:54:50.006Z,18.88
2016-05-03T12:55:49.900Z,19.08
2016-05-03T12:56:50.090Z,19.18